createdAt,value
2022-11-04T00:01:26.756Z,11.65
2022-11-04T00:03:54.953Z,11.59
2022-11-04T00:06:23.164Z,11.56
2022-11-04T00:08:52.601Z,11.58
2022-11-04T00:11:37.860Z,11.54
2022-11-04T00:14:06.007Z,11.61
2022-11-04T00:16:51.214Z,11.61
2022-11-04T00:19:18.853Z,11.59
2022-11-04T00:22:04.076Z,11.56
2022-11-04T00:24:50.600Z,11.48
2022-11-04T00:27:37.801Z,11.44
2022-11-04T00:30:08.052Z,11.51
2022-11-04T00:32:53.672Z,11.53
2022-11-04T00:35:21.687Z,11.56
2022-11-04T00:37:49.154Z,11.53
2022-11-04T00:40:18.275Z,11.53
2022-11-04T00:42:46.917Z,11.53
2022-11-04T00:45:14.409Z,11.43
2022-11-04T00:47:41.878Z,11.42
2022-11-04T00:50:10.029Z,11.46
2022-11-04T00:52:37.794Z,11.39
2022-11-04T00:55:05.991Z,11.51
2022-11-04T00:57:34.771Z,11.50
2022-11-04T01:00:02.281Z,11.47
2022-11-04T01:02:29.908Z,11.52
2022-11-04T01:04:57.471Z,11.54
2022-11-04T01:07:24.940Z,11.53
2022-11-04T01:09:52.656Z,11.55
2022-11-04T01:12:20.115Z,11.59
2022-11-04T01:14:49.727Z,11.54
2022-11-04T01:17:17.387Z,11.48
2022-11-04T01:19:44.853Z,11.52
2022-11-04T01:22:12.319Z,11.51
2022-11-04T01:24:39.789Z,11.55
2022-11-04T01:27:07.325Z,11.53
2022-11-04T01:29:34.869Z,11.58
2022-11-04T01:32:03.691Z,11.60
2022-11-04T01:34:31.449Z,11.54
2022-11-04T01:36:59.464Z,11.59
2022-11-04T01:39:26.969Z,11.56
2022-11-04T01:41:54.504Z,11.53
2022-11-04T01:44:48.453Z,11.60
2022-11-04T01:47:19.383Z,11.62
2022-11-04T01:49:50.195Z,11.63
2022-11-04T01:52:21.682Z,11.65
2022-11-04T01:54:53.686Z,11.61
2022-11-04T01:57:26.695Z,11.65
2022-11-04T01:59:54.266Z,11.67
2022-11-04T02:02:23.135Z,11.65
2022-11-04T02:04:51.048Z,11.80
2022-11-04T02:07:18.514Z,11.91
2022-11-04T02:09:46.114Z,11.87
2022-11-04T02:12:30.965Z,11.91
2022-11-04T02:14:59.193Z,11.84
2022-11-04T02:17:42.272Z,11.88
2022-11-04T02:20:33.543Z,11.95
2022-11-04T02:23:46.914Z,11.92
2022-11-04T02:26:48.995Z,11.97
2022-11-04T02:29:32.533Z,11.97
2022-11-04T02:32:12.366Z,11.96
2022-11-04T02:34:51.935Z,11.87
2022-11-04T02:37:29.582Z,11.93
2022-11-04T02:40:06.177Z,11.88
2022-11-04T02:42:41.035Z,11.91
2022-11-04T02:45:18.313Z,11.90
2022-11-04T02:47:57.341Z,11.87
2022-11-04T02:50:30.876Z,11.85
2022-11-04T02:53:03.921Z,11.94
2022-11-04T02:55:36.643Z,11.99
2022-11-04T02:58:08.103Z,12.04
2022-11-04T03:00:40.745Z,12.11
2022-11-04T03:03:12.010Z,12.21
2022-11-04T03:05:44.101Z,12.14
2022-11-04T03:08:16.621Z,11.99
2022-11-04T03:10:46.904Z,11.98
2022-11-04T03:13:19.126Z,12.02
2022-11-04T03:15:51.938Z,11.89
2022-11-04T03:18:26.012Z,11.94
2022-11-04T03:20:57.574Z,11.82
2022-11-04T03:23:25.215Z,11.89
2022-11-04T03:25:59.041Z,11.82
2022-11-04T03:28:38.772Z,11.89
2022-11-04T03:31:12.670Z,11.92
2022-11-04T03:33:44.741Z,12.03
2022-11-04T03:36:12.368Z,12.01
2022-11-04T03:38:40.189Z,12.13
2022-11-04T03:41:12.823Z,12.20
2022-11-04T03:43:42.639Z,12.04
2022-11-04T03:46:11.825Z,11.78
2022-11-04T03:48:39.817Z,11.65
2022-11-04T03:51:07.611Z,11.66
2022-11-04T03:53:35.155Z,11.48
2022-11-04T03:56:19.435Z,11.43
2022-11-04T03:59:04.591Z,11.14
2022-11-04T04:01:44.483Z,11.04
2022-11-04T04:04:17.493Z,11.09
2022-11-04T04:06:46.945Z,11.10
2022-11-04T04:09:21.588Z,11.13
2022-11-04T04:11:55.427Z,11.24
2022-11-04T04:14:40.510Z,11.15
2022-11-04T04:17:16.839Z,11.06
2022-11-04T04:19:48.956Z,11.09
2022-11-04T04:22:20.413Z,11.19
2022-11-04T04:25:08.235Z,11.16
2022-11-04T04:27:36.779Z,11.17
2022-11-04T04:30:08.034Z,11.13
2022-11-04T04:32:39.730Z,11.26
2022-11-04T04:35:26.842Z,11.40
2022-11-04T04:38:16.682Z,11.60
2022-11-04T04:41:05.357Z,11.65
2022-11-04T04:43:50.510Z,11.76
2022-11-04T04:46:17.977Z,11.72
2022-11-04T04:48:46.786Z,11.65
2022-11-04T04:51:14.539Z,11.77
2022-11-04T04:53:41.990Z,11.68
2022-11-04T04:56:09.604Z,11.67
2022-11-04T04:58:37.053Z,11.78
2022-11-04T05:01:04.906Z,11.79
2022-11-04T05:03:32.421Z,11.80
2022-11-04T05:06:01.662Z,11.90
2022-11-04T05:08:29.101Z,11.91
2022-11-04T05:10:56.565Z,11.90
2022-11-04T05:13:26.865Z,12.00
2022-11-04T05:15:54.636Z,12.04
2022-11-04T05:18:22.093Z,12.04
2022-11-04T05:20:49.906Z,12.09
2022-11-04T05:23:18.730Z,12.13
2022-11-04T05:25:46.485Z,12.10
2022-11-04T05:28:14.218Z,12.17
2022-11-04T05:30:41.744Z,12.11
2022-11-04T05:33:09.336Z,12.04
2022-11-04T05:35:36.978Z,12.03
2022-11-04T05:38:04.460Z,11.89
2022-11-04T05:40:33.253Z,11.85
2022-11-04T05:43:01.422Z,11.80
2022-11-04T05:45:29.833Z,11.70
2022-11-04T05:47:59.395Z,11.63
2022-11-04T05:50:27.046Z,11.59
2022-11-04T05:52:54.685Z,11.31
2022-11-04T05:55:22.196Z,11.27
2022-11-04T05:57:51.150Z,11.26
2022-11-04T06:00:18.990Z,11.24
2022-11-04T06:02:46.555Z,11.25
2022-11-04T06:05:14.268Z,11.36
2022-11-04T06:07:41.710Z,11.33
2022-11-04T06:10:10.284Z,11.38
2022-11-04T06:12:37.755Z,11.47
2022-11-04T06:15:07.702Z,11.51
2022-11-04T06:17:35.152Z,11.55
2022-11-04T06:20:04.425Z,11.43
2022-11-04T06:22:31.874Z,11.34
2022-11-04T06:24:59.447Z,11.35
2022-11-04T06:27:26.956Z,11.43
2022-11-04T06:29:54.568Z,11.34
2022-11-04T06:32:23.406Z,11.36
2022-11-04T06:34:50.924Z,11.27
2022-11-04T06:37:18.366Z,11.27
2022-11-04T06:39:45.880Z,11.29
2022-11-04T06:42:13.351Z,11.23
2022-11-04T06:44:42.327Z,11.22
2022-11-04T06:47:10.890Z,11.29
2022-11-04T06:49:39.863Z,11.40
2022-11-04T06:52:07.401Z,11.79
2022-11-04T06:54:38.296Z,11.80
2022-11-04T06:57:05.752Z,11.81
2022-11-04T06:59:33.406Z,11.90
2022-11-04T07:02:00.940Z,11.83
2022-11-04T07:04:28.728Z,11.83
2022-11-04T07:06:57.506Z,11.82
2022-11-04T07:09:25.019Z,11.81
2022-11-04T07:11:52.538Z,11.88
2022-11-04T07:14:21.296Z,11.92
2022-11-04T07:16:50.851Z,12.12
2022-11-04T07:19:18.594Z,12.22
2022-11-04T07:21:46.058Z,12.19
2022-11-04T07:24:15.187Z,12.28
2022-11-04T07:26:43.067Z,12.50
2022-11-04T07:29:11.118Z,12.54
2022-11-04T07:31:38.799Z,12.47
2022-11-04T07:34:06.786Z,12.51
2022-11-04T07:36:34.249Z,12.57
2022-11-04T07:39:02.149Z,12.62
2022-11-04T07:41:30.926Z,12.66
2022-11-04T07:43:59.036Z,12.81
2022-11-04T07:46:26.510Z,12.82
2022-11-04T07:48:53.982Z,12.88
2022-11-04T07:51:21.980Z,12.89
2022-11-04T07:53:49.470Z,12.97
2022-11-04T07:56:18.894Z,12.97
2022-11-04T07:58:48.118Z,12.95
2022-11-04T08:01:18.270Z,12.99
2022-11-04T08:03:46.034Z,13.16
2022-11-04T08:06:15.205Z,12.99
2022-11-04T08:08:43.488Z,12.96
2022-11-04T08:11:17.471Z,12.94
2022-11-04T08:13:48.014Z,12.83
2022-11-04T08:16:17.635Z,12.69
2022-11-04T08:18:45.889Z,12.63
2022-11-04T08:21:13.822Z,12.57
2022-11-04T08:23:41.570Z,12.58
2022-11-04T08:26:10.552Z,12.43
2022-11-04T08:28:38.692Z,12.46
2022-11-04T08:31:10.608Z,12.48
2022-11-04T08:33:38.113Z,12.42
2022-11-04T08:36:09.063Z,12.37
2022-11-04T08:38:36.787Z,12.52
2022-11-04T08:41:06.871Z,12.61
2022-11-04T08:43:35.018Z,12.71
2022-11-04T08:46:03.180Z,12.68
2022-11-04T08:48:32.021Z,12.73
2022-11-04T08:50:59.985Z,12.73
2022-11-04T08:53:27.684Z,12.62
2022-11-04T08:55:55.935Z,12.61
2022-11-04T08:58:24.683Z,12.79
2022-11-04T09:00:52.439Z,12.82
2022-11-04T09:03:20.192Z,12.84
2022-11-04T09:05:49.141Z,12.84
2022-11-04T09:08:17.846Z,12.92
2022-11-04T09:10:47.551Z,12.93
2022-11-04T09:13:16.863Z,12.94
2022-11-04T09:15:44.552Z,12.79
2022-11-04T09:18:12.210Z,12.66
2022-11-04T09:20:42.042Z,12.65
2022-11-04T09:23:11.179Z,12.67
2022-11-04T09:25:38.980Z,12.43
2022-11-04T09:28:06.765Z,12.39
2022-11-04T09:30:34.366Z,12.53
2022-11-04T09:33:01.848Z,12.35
2022-11-04T09:35:29.302Z,12.28
2022-11-04T09:37:57.037Z,12.41
2022-11-04T09:40:26.772Z,12.44
2022-11-04T09:43:11.214Z,12.44
2022-11-04T09:45:40.736Z,12.43
2022-11-04T09:48:12.611Z,12.25
2022-11-04T09:50:46.358Z,12.27
2022-11-04T09:53:18.832Z,12.19
2022-11-04T09:55:53.909Z,12.12
2022-11-04T09:58:21.517Z,12.14
2022-11-04T10:00:55.468Z,12.20
2022-11-04T10:03:40.778Z,12.12
2022-11-04T10:06:25.577Z,12.02
2022-11-04T10:09:05.189Z,11.98
2022-11-04T10:11:43.311Z,11.92
2022-11-04T10:14:40.283Z,11.88
2022-11-04T10:17:22.501Z,11.84
2022-11-04T10:20:02.478Z,11.72
2022-11-04T10:22:33.602Z,11.95
2022-11-04T10:25:09.827Z,11.90
2022-11-04T10:27:42.639Z,11.90
2022-11-04T10:30:16.908Z,11.81
2022-11-04T10:32:59.528Z,11.94
2022-11-04T10:35:34.316Z,11.83
2022-11-04T10:38:15.270Z,11.95
2022-11-04T10:40:46.630Z,11.74
2022-11-04T10:43:19.608Z,11.69
2022-11-04T10:45:56.454Z,11.63
2022-11-04T10:48:30.980Z,11.68
2022-11-04T10:50:59.639Z,11.58
2022-11-04T10:53:28.908Z,11.70
2022-11-04T10:56:03.590Z,11.57
2022-11-04T10:58:35.629Z,11.45
2022-11-04T11:01:24.308Z,11.41
2022-11-04T11:03:52.195Z,11.49
2022-11-04T11:06:28.027Z,11.43
2022-11-04T11:09:00.222Z,11.33
2022-11-04T11:11:40.565Z,11.44
2022-11-04T11:14:19.668Z,11.36
2022-11-04T11:16:48.095Z,11.39
2022-11-04T11:19:18.854Z,11.43
2022-11-04T11:21:49.391Z,11.48
2022-11-04T11:24:21.334Z,11.48
2022-11-04T11:26:51.767Z,11.43
2022-11-04T11:29:26.312Z,11.44
2022-11-04T11:31:55.614Z,11.32
2022-11-04T11:34:27.473Z,11.37
2022-11-04T11:36:57.443Z,11.41
2022-11-04T11:39:27.999Z,11.52
2022-11-04T11:41:59.316Z,11.41
2022-11-04T11:44:32.822Z,11.39
2022-11-04T11:47:03.137Z,11.40
2022-11-04T11:49:35.236Z,11.40
2022-11-04T11:52:25.622Z,11.39
2022-11-04T11:54:55.930Z,11.54
2022-11-04T11:57:36.862Z,11.53
2022-11-04T12:03:01.875Z,11.41
2022-11-04T12:11:35.877Z,11.25
2022-11-04T12:14:06.984Z,11.21
2022-11-04T12:16:44.742Z,11.23
2022-11-04T12:19:26.841Z,11.24
2022-11-04T12:22:02.327Z,11.26
2022-11-04T12:24:39.342Z,11.27
2022-11-04T12:27:13.964Z,11.33
2022-11-04T12:30:00.220Z,11.31
2022-11-04T12:32:36.962Z,11.31
2022-11-04T12:35:21.225Z,11.15
2022-11-04T12:37:59.898Z,11.17
2022-11-04T12:40:31.318Z,11.28
2022-11-04T12:43:15.641Z,11.20
2022-11-04T12:45:53.938Z,11.38
2022-11-04T12:48:53.070Z,11.37
2022-11-04T12:51:33.486Z,11.33
2022-11-04T12:54:21.966Z,11.26
2022-11-04T12:56:55.876Z,11.35
2022-11-04T12:59:44.228Z,11.20
2022-11-04T13:02:21.771Z,11.15
2022-11-04T13:05:00.122Z,11.10
2022-11-04T13:07:32.208Z,11.06
2022-11-04T13:10:06.227Z,11.10
2022-11-04T13:12:39.143Z,11.04
2022-11-04T13:15:16.413Z,11.13
2022-11-04T13:17:46.475Z,11.14
2022-11-04T13:20:27.443Z,11.11
2022-11-04T13:23:08.048Z,11.04
2022-11-04T13:25:40.371Z,11.14
2022-11-04T13:28:12.601Z,11.20
2022-11-04T13:30:45.963Z,11.01
2022-11-04T13:33:20.429Z,11.14
2022-11-04T13:35:57.486Z,10.98
2022-11-04T13:38:29.400Z,10.96
2022-11-04T13:41:12.767Z,11.01
2022-11-04T13:43:50.246Z,11.10
2022-11-04T13:46:23.605Z,11.08
2022-11-04T13:48:56.128Z,11.03
2022-11-04T13:51:34.640Z,11.05
2022-11-04T13:54:02.741Z,11.06
2022-11-04T13:56:34.869Z,11.11
2022-11-04T13:59:08.701Z,11.06
2022-11-04T14:01:36.543Z,10.86
2022-11-04T14:04:18.893Z,10.94
2022-11-04T14:07:00.105Z,10.92
2022-11-04T14:09:37.659Z,10.96
2022-11-04T14:12:28.292Z,10.91
2022-11-04T14:14:57.549Z,11.04
2022-11-04T14:18:02.542Z,10.98
2022-11-04T14:20:33.616Z,10.87
2022-11-04T14:23:03.604Z,11.00
2022-11-04T14:25:34.373Z,10.95
2022-11-04T14:28:03.780Z,10.86
2022-11-04T14:30:38.261Z,10.94
2022-11-04T14:33:09.559Z,10.89
2022-11-04T14:35:37.673Z,10.87
2022-11-04T14:38:25.101Z,10.83
2022-11-04T14:41:12.688Z,11.05
2022-11-04T14:43:44.009Z,10.74
2022-11-04T14:46:15.350Z,10.81
2022-11-04T14:48:46.932Z,10.93
2022-11-04T14:51:24.921Z,10.73
2022-11-04T14:53:56.767Z,10.64
2022-11-04T14:56:26.842Z,10.59
2022-11-04T14:58:59.469Z,10.70
2022-11-04T15:01:34.229Z,10.76
2022-11-04T15:04:13.469Z,10.73
2022-11-04T15:06:54.750Z,10.66
2022-11-04T15:09:26.445Z,10.54
2022-11-04T15:12:20.615Z,10.51
2022-11-04T15:14:50.140Z,10.58
2022-11-04T15:17:21.797Z,10.49
2022-11-04T15:19:51.920Z,10.37
2022-11-04T15:22:20.307Z,10.24
2022-11-04T15:24:50.551Z,10.23
2022-11-04T15:27:20.112Z,10.05
2022-11-04T15:29:54.810Z,10.19
2022-11-04T15:32:22.420Z,10.06
2022-11-04T15:34:50.467Z,10.11
2022-11-04T15:37:18.456Z,10.05
2022-11-04T15:39:48.398Z,10.07
2022-11-04T15:42:42.912Z,10.11
2022-11-04T15:45:29.385Z,9.99
2022-11-04T15:48:29.658Z,10.08
2022-11-04T15:51:25.133Z,10.06
2022-11-04T15:53:55.516Z,10.19
2022-11-04T15:56:25.873Z,10.06
2022-11-04T15:58:55.964Z,10.05
2022-11-04T16:01:24.338Z,10.19
2022-11-04T16:03:54.104Z,10.08
2022-11-04T16:06:35.093Z,10.19
2022-11-04T16:09:05.342Z,10.16
2022-11-04T16:11:32.896Z,10.26
2022-11-04T16:14:22.861Z,10.02
2022-11-04T16:16:52.387Z,10.07
2022-11-04T16:19:23.594Z,10.03
2022-11-04T16:22:00.176Z,10.19
2022-11-04T16:24:31.266Z,10.22
2022-11-04T16:26:58.903Z,10.33
2022-11-04T16:29:30.211Z,10.30
2022-11-04T16:32:17.629Z,10.32
2022-11-04T16:34:45.774Z,10.41
2022-11-04T16:37:13.720Z,10.29
2022-11-04T16:39:41.587Z,10.39
2022-11-04T16:42:12.339Z,10.15
2022-11-04T16:44:41.561Z,10.37
2022-11-04T16:47:11.433Z,10.31
2022-11-04T16:49:38.969Z,10.29
2022-11-04T16:52:13.481Z,10.17
2022-11-04T16:54:41.030Z,10.17
2022-11-04T16:57:11.750Z,10.03
2022-11-04T16:59:40.993Z,10.23
2022-11-04T17:02:18.772Z,10.10
2022-11-04T17:04:46.569Z,10.09
2022-11-04T17:07:14.031Z,9.99
2022-11-04T17:09:41.855Z,10.04
2022-11-04T17:12:09.706Z,10.04
2022-11-04T17:14:37.208Z,10.15
2022-11-04T17:17:06.759Z,10.03
2022-11-04T17:19:34.978Z,10.14
2022-11-04T17:22:05.258Z,10.20
2022-11-04T17:24:32.758Z,10.09
2022-11-04T17:27:00.501Z,10.02
2022-11-04T17:29:29.800Z,10.03
2022-11-04T17:31:57.343Z,10.02
2022-11-04T17:34:26.681Z,9.95
2022-11-04T17:36:54.625Z,9.95
2022-11-04T17:39:22.490Z,9.90
2022-11-04T17:42:07.561Z,9.87
2022-11-04T17:44:35.075Z,9.91
2022-11-04T17:47:02.565Z,9.95
2022-11-04T17:49:31.739Z,9.88
2022-11-04T17:52:01.084Z,9.96
2022-11-04T17:54:30.484Z,9.94
2022-11-04T17:56:58.107Z,9.80
2022-11-04T17:59:25.829Z,9.81
2022-11-04T18:01:55.337Z,9.72
2022-11-04T18:04:24.364Z,9.75
2022-11-04T18:06:57.192Z,9.69
2022-11-04T18:09:29.115Z,9.71
2022-11-04T18:12:14.293Z,9.69
2022-11-04T18:14:41.803Z,9.78
2022-11-04T18:17:09.331Z,9.75
2022-11-04T18:19:37.789Z,9.80
2022-11-04T18:22:06.934Z,9.86
2022-11-04T18:24:34.844Z,9.67
2022-11-04T18:27:02.506Z,9.68
2022-11-04T18:29:30.014Z,9.78
2022-11-04T18:31:57.506Z,9.68
2022-11-04T18:34:24.991Z,9.60
2022-11-04T18:36:52.458Z,9.64
2022-11-04T18:39:21.277Z,9.65
2022-11-04T18:41:48.918Z,9.71
2022-11-04T18:44:20.082Z,9.58
2022-11-04T18:46:48.459Z,9.66
2022-11-04T18:49:16.952Z,9.57
2022-11-04T18:51:44.587Z,9.57
2022-11-04T18:54:13.016Z,9.71
2022-11-04T18:56:42.053Z,9.69
2022-11-04T18:59:10.468Z,9.68
2022-11-04T19:01:38.296Z,9.66
2022-11-04T19:04:06.674Z,9.70
2022-11-04T19:06:36.053Z,9.62
2022-11-04T19:09:32.430Z,9.49
2022-11-04T19:12:13.308Z,9.76
2022-11-04T19:14:40.877Z,9.67
2022-11-04T19:17:08.449Z,9.70
2022-11-04T19:19:35.925Z,9.69
2022-11-04T19:22:03.406Z,9.58
2022-11-04T19:24:30.903Z,9.60
2022-11-04T19:27:00.113Z,9.78
2022-11-04T19:29:28.945Z,9.60
2022-11-04T19:31:56.515Z,9.69
2022-11-04T19:34:24.283Z,9.77
2022-11-04T19:36:51.904Z,9.75
2022-11-04T19:39:19.400Z,9.74
2022-11-04T19:42:04.670Z,9.79
2022-11-04T19:44:33.610Z,9.73
2022-11-04T19:47:05.073Z,9.78
2022-11-04T19:49:32.598Z,9.73
2022-11-04T19:52:00.885Z,9.84
2022-11-04T19:54:29.306Z,9.78
2022-11-04T19:56:57.058Z,9.85
2022-11-04T19:59:25.522Z,9.87
2022-11-04T20:01:54.426Z,9.91
2022-11-04T20:04:22.189Z,9.72
2022-11-04T20:06:49.670Z,9.78
2022-11-04T20:09:17.157Z,9.79
2022-11-04T20:11:58.619Z,9.84
2022-11-04T20:14:27.571Z,9.76
2022-11-04T20:16:56.754Z,9.82
2022-11-04T20:19:24.517Z,9.84
2022-11-04T20:21:52.281Z,9.84
2022-11-04T20:24:20.310Z,9.88
2022-11-04T20:26:47.936Z,9.92
2022-11-04T20:29:16.503Z,9.87
2022-11-04T20:31:44.688Z,9.87
2022-11-04T20:34:14.670Z,9.74
2022-11-04T20:36:42.646Z,9.82
2022-11-04T20:42:06.230Z,9.79
2022-11-04T20:44:33.842Z,9.87
2022-11-04T20:47:01.296Z,9.93
2022-11-04T20:49:30.100Z,9.84
2022-11-04T20:51:57.685Z,9.94
2022-11-04T20:54:26.694Z,9.83
2022-11-04T20:56:54.382Z,9.83
2022-11-04T20:59:21.856Z,9.90
2022-11-04T21:04:42.360Z,9.89
2022-11-04T21:07:09.877Z,9.81
2022-11-04T21:09:37.728Z,9.82
2022-11-04T21:12:05.848Z,9.81
2022-11-04T21:14:37.158Z,9.81
2022-11-04T21:17:06.419Z,9.68
2022-11-04T21:19:34.042Z,9.71
2022-11-04T21:22:03.160Z,9.80
2022-11-04T21:24:37.943Z,9.71
2022-11-04T21:27:06.556Z,9.60
2022-11-04T21:29:33.987Z,9.68
2022-11-04T21:32:01.671Z,9.69
2022-11-04T21:34:29.146Z,9.86
2022-11-04T21:36:56.685Z,9.84
2022-11-04T21:39:26.382Z,9.75
2022-11-04T21:41:54.117Z,9.81
2022-11-04T21:44:21.568Z,9.88
2022-11-04T21:46:55.082Z,9.75
2022-11-04T21:49:22.519Z,9.78
2022-11-04T21:51:52.162Z,9.65
2022-11-04T21:54:19.701Z,9.66
2022-11-04T21:56:51.455Z,9.71
2022-11-04T21:59:19.024Z,9.62
2022-11-04T22:01:46.582Z,9.71
2022-11-04T22:04:14.230Z,9.64
2022-11-04T22:06:41.702Z,9.68
2022-11-04T22:09:10.471Z,9.58
2022-11-04T22:11:39.391Z,9.53
2022-11-04T22:14:09.443Z,9.65
2022-11-04T22:16:40.727Z,9.54
2022-11-04T22:19:10.696Z,9.59
2022-11-04T22:21:40.765Z,9.62
2022-11-04T22:24:10.952Z,9.71
2022-11-04T22:26:39.284Z,9.60
2022-11-04T22:29:08.248Z,9.67
2022-11-04T22:31:37.560Z,9.79
2022-11-04T22:34:06.387Z,9.67
2022-11-04T22:36:34.875Z,9.82
2022-11-04T22:39:03.212Z,9.81
2022-11-04T22:41:32.533Z,9.70
2022-11-04T22:46:53.429Z,9.59
2022-11-04T22:49:21.364Z,9.52
2022-11-04T22:51:49.096Z,9.54
2022-11-04T22:54:17.090Z,9.48
2022-11-04T22:56:44.527Z,9.64
2022-11-04T22:59:12.495Z,9.50
2022-11-04T23:01:40.107Z,9.54
2022-11-04T23:07:02.942Z,9.43
2022-11-04T23:09:31.723Z,9.50
2022-11-04T23:12:16.796Z,9.50
2022-11-04T23:15:10.024Z,9.45
2022-11-04T23:17:55.284Z,9.51
2022-11-04T23:20:27.595Z,9.50
2022-11-04T23:23:12.825Z,9.54
2022-11-04T23:25:40.967Z,9.56
2022-11-04T23:28:26.215Z,9.59
2022-11-04T23:30:53.702Z,9.52
2022-11-04T23:33:41.600Z,9.44
2022-11-04T23:36:27.526Z,9.40
2022-11-04T23:38:54.965Z,9.40
2022-11-04T23:41:39.987Z,9.56
2022-11-04T23:44:27.979Z,9.53
2022-11-04T23:47:13.293Z,9.47
2022-11-04T23:49:57.895Z,9.46
2022-11-04T23:52:44.560Z,9.40
2022-11-04T23:55:29.669Z,9.38
2022-11-04T23:58:16.787Z,9.39
